sensor_id;sensor_type;location;lat;lon;timestamp;pressure;altitude;pressure_sealevel;temperature;humidity
28354;BME280;15603;50.878;8.036;2023-04-25T00:00:18;144521.34;;;5.32;100.00
28354;BME280;15603;50.878;8.036;2023-04-25T00:02:46;144518.88;;;5.31;100.00
28354;BME280;15603;50.878;8.036;2023-04-25T00:05:13;144488.66;;;5.18;100.00
28354;BME280;15603;50.878;8.036;2023-04-25T00:07:42;144463.22;;;5.07;100.00
28354;BME280;15603;50.878;8.036;2023-04-25T00:10:09;144486.22;;;5.17;100.00
28354;BME280;15603;50.878;8.036;2023-04-25T00:12:37;144423.25;;;4.90;100.00
28354;BME280;15603;50.878;8.036;2023-04-25T00:15:06;144498.31;;;5.22;100.00
28354;BME280;15603;50.878;8.036;2023-04-25T00:17:33;144503.16;;;5.24;100.00
28354;BME280;15603;50.878;8.036;2023-04-25T00:20:01;144464.41;;;5.08;100.00
28354;BME280;15603;50.878;8.036;2023-04-25T00:22:32;144465.66;;;5.08;100.00
28354;BME280;15603;50.878;8.036;2023-04-25T00:25:01;144471.69;;;5.11;100.00
28354;BME280;15603;50.878;8.036;2023-04-25T00:27:28;144494.69;;;5.21;100.00
28354;BME280;15603;50.878;8.036;2023-04-25T00:29:55;144477.72;;;5.14;100.00
28354;BME280;15603;50.878;8.036;2023-04-25T00:32:22;144459.56;;;5.06;100.00
28354;BME280;15603;50.878;8.036;2023-04-25T00:34:49;144452.34;;;5.03;100.00
28354;BME280;15603;50.878;8.036;2023-04-25T00:37:16;144445.06;;;5.00;100.00
28354;BME280;15603;50.878;8.036;2023-04-25T00:39:43;144386.94;;;4.75;100.00
28354;BME280;15603;50.878;8.036;2023-04-25T00:42:10;144439.00;;;4.97;100.00
28354;BME280;15603;50.878;8.036;2023-04-25T00:44:38;144394.22;;;4.78;100.00
28354;BME280;15603;50.878;8.036;2023-04-25T00:47:06;144386.94;;;4.75;100.00
28354;BME280;15603;50.878;8.036;2023-04-25T00:49:34;144445.06;;;5.00;100.00
28354;BME280;15603;50.878;8.036;2023-04-25T00:52:01;144443.84;;;4.99;100.00
28354;BME280;15603;50.878;8.036;2023-04-25T00:54:28;144448.69;;;5.01;100.00
28354;BME280;15603;50.878;8.036;2023-04-25T00:56:57;144423.25;;;4.90;100.00
28354;BME280;15603;50.878;8.036;2023-04-25T00:59:25;144370.03;;;4.68;100.00
28354;BME280;15603;50.878;8.036;2023-04-25T01:01:52;144351.88;;;4.60;100.00
28354;BME280;15603;50.878;8.036;2023-04-25T01:04:19;144394.22;;;4.78;100.00
28354;BME280;15603;50.878;8.036;2023-04-25T01:06:47;144353.06;;;4.61;100.00
28354;BME280;15603;50.878;8.036;2023-04-25T01:09:14;144373.63;;;4.69;100.00
28354;BME280;15603;50.878;8.036;2023-04-25T01:11:41;144336.13;;;4.53;100.00
28354;BME280;15603;50.878;8.036;2023-04-25T01:14:08;144290.16;;;4.34;100.00
28354;BME280;15603;50.878;8.036;2023-04-25T01:16:36;144353.06;;;4.61;100.00
28354;BME280;15603;50.878;8.036;2023-04-25T01:19:16;144338.56;;;4.55;100.00
28354;BME280;15603;50.878;8.036;2023-04-25T01:21:46;144280.47;;;4.30;100.00
28354;BME280;15603;50.878;8.036;2023-04-25T01:24:14;144309.50;;;4.42;100.00
28354;BME280;15603;50.878;8.036;2023-04-25T01:26:42;144280.47;;;4.30;100.00
28354;BME280;15603;50.878;8.036;2023-04-25T01:29:20;144158.28;;;3.78;100.00
28354;BME280;15603;50.878;8.036;2023-04-25T01:31:47;144253.84;;;4.19;100.00
28354;BME280;15603;50.878;8.036;2023-04-25T01:34:15;144223.59;;;4.06;100.00
28354;BME280;15603;50.878;8.036;2023-04-25T01:36:42;144251.47;;;4.18;100.00
28354;BME280;15603;50.878;8.036;2023-04-25T01:39:09;144256.28;;;4.20;100.00
28354;BME280;15603;50.878;8.036;2023-04-25T01:41:38;144229.66;;;4.08;100.00
28354;BME280;15603;50.878;8.036;2023-04-25T01:44:05;144174.00;;;3.85;100.00
28354;BME280;15603;50.878;8.036;2023-04-25T01:46:33;144253.84;;;4.19;100.00
28354;BME280;15603;50.878;8.036;2023-04-25T01:49:01;144236.91;;;4.11;100.00
28354;BME280;15603;50.878;8.036;2023-04-25T01:51:28;144275.63;;;4.28;100.00
28354;BME280;15603;50.878;8.036;2023-04-25T01:53:57;144273.19;;;4.27;100.00
28354;BME280;15603;50.878;8.036;2023-04-25T01:56:31;144265.97;;;4.24;100.00
28354;BME280;15603;50.878;8.036;2023-04-25T01:58:59;144274.44;;;4.27;100.00
28354;BME280;15603;50.878;8.036;2023-04-25T02:01:52;144285.31;;;4.32;100.00
28354;BME280;15603;50.878;8.036;2023-04-25T02:04:25;144281.66;;;4.30;100.00
28354;BME280;15603;50.878;8.036;2023-04-25T02:06:53;144228.44;;;4.08;100.00
28354;BME280;15603;50.878;8.036;2023-04-25T02:09:21;144297.44;;;4.37;100.00
28354;BME280;15603;50.878;8.036;2023-04-25T02:11:52;144355.47;;;4.62;100.00
28354;BME280;15603;50.878;8.036;2023-04-25T02:14:48;144320.41;;;4.47;100.00
28354;BME280;15603;50.878;8.036;2023-04-25T02:17:27;144345.78;;;4.58;100.00
28354;BME280;15603;50.878;8.036;2023-04-25T02:19:54;144357.91;;;4.63;100.00
28354;BME280;15603;50.878;8.036;2023-04-25T02:22:23;144402.69;;;4.82;100.00
28354;BME280;15603;50.878;8.036;2023-04-25T02:24:50;144357.91;;;4.63;100.00
28354;BME280;15603;50.878;8.036;2023-04-25T02:27:17;144408.72;;;4.84;100.00
28354;BME280;15603;50.878;8.036;2023-04-25T02:29:44;144437.81;;;4.97;100.00
28354;BME280;15603;50.878;8.036;2023-04-25T02:32:11;144424.50;;;4.91;100.00
28354;BME280;15603;50.878;8.036;2023-04-25T02:34:39;144382.09;;;4.73;100.00
28354;BME280;15603;50.878;8.036;2023-04-25T02:37:06;144480.16;;;5.15;100.00
28354;BME280;15603;50.878;8.036;2023-04-25T02:39:33;144454.72;;;5.04;100.00
28354;BME280;15603;50.878;8.036;2023-04-25T02:42:01;144487.44;;;5.18;100.00
28354;BME280;15603;50.878;8.036;2023-04-25T02:44:29;144529.81;;;5.36;100.00
28354;BME280;15603;50.878;8.036;2023-04-25T02:46:56;144541.88;;;5.41;100.00
28354;BME280;15603;50.878;8.036;2023-04-25T02:49:23;144512.84;;;5.28;100.00
28354;BME280;15603;50.878;8.036;2023-04-25T02:51:51;144505.59;;;5.25;100.00
28354;BME280;15603;50.878;8.036;2023-04-25T02:54:18;144506.81;;;5.26;100.00
28354;BME280;15603;50.878;8.036;2023-04-25T02:56:47;144546.78;;;5.43;100.00
28354;BME280;15603;50.878;8.036;2023-04-25T02:59:20;144545.53;;;5.42;100.00
28354;BME280;15603;50.878;8.036;2023-04-25T03:01:47;144537.06;;;5.39;100.00
28354;BME280;15603;50.878;8.036;2023-04-25T03:04:14;144486.22;;;5.17;100.00
28354;BME280;15603;50.878;8.036;2023-04-25T03:06:41;144478.97;;;5.14;100.00
28354;BME280;15603;50.878;8.036;2023-04-25T03:09:08;144476.53;;;5.13;100.00
28354;BME280;15603;50.878;8.036;2023-04-25T03:11:38;144445.06;;;5.00;100.00
28354;BME280;15603;50.878;8.036;2023-04-25T03:14:05;144451.13;;;5.02;100.00
28354;BME280;15603;50.878;8.036;2023-04-25T03:16:33;144458.38;;;5.05;100.00
28354;BME280;15603;50.878;8.036;2023-04-25T03:19:00;144413.56;;;4.86;100.00
28354;BME280;15603;50.878;8.036;2023-04-25T03:21:28;144411.19;;;4.85;100.00
28354;BME280;15603;50.878;8.036;2023-04-25T03:23:55;144477.72;;;5.14;100.00
28354;BME280;15603;50.878;8.036;2023-04-25T03:26:22;144445.06;;;5.00;100.00
28354;BME280;15603;50.878;8.036;2023-04-25T03:28:49;144447.50;;;5.01;100.00
28354;BME280;15603;50.878;8.036;2023-04-25T03:31:16;144391.78;;;4.77;100.00
28354;BME280;15603;50.878;8.036;2023-04-25T03:33:43;144397.84;;;4.80;100.00
28354;BME280;15603;50.878;8.036;2023-04-25T03:36:10;144435.38;;;4.96;100.00
28354;BME280;15603;50.878;8.036;2023-04-25T03:38:38;144395.41;;;4.79;100.00
28354;BME280;15603;50.878;8.036;2023-04-25T03:41:07;144379.69;;;4.72;100.00
28354;BME280;15603;50.878;8.036;2023-04-25T03:43:57;144396.66;;;4.79;100.00
28354;BME280;15603;50.878;8.036;2023-04-25T03:46:24;144401.50;;;4.81;100.00
28354;BME280;15603;50.878;8.036;2023-04-25T03:48:51;144385.75;;;4.75;100.00
28354;BME280;15603;50.878;8.036;2023-04-25T03:51:23;144357.91;;;4.63;100.00
28354;BME280;15603;50.878;8.036;2023-04-25T03:53:51;144365.19;;;4.66;100.00
28354;BME280;15603;50.878;8.036;2023-04-25T03:56:19;144357.91;;;4.63;100.00
28354;BME280;15603;50.878;8.036;2023-04-25T03:58:52;144326.44;;;4.49;100.00
28354;BME280;15603;50.878;8.036;2023-04-25T04:01:22;144325.25;;;4.49;100.00
28354;BME280;15603;50.878;8.036;2023-04-25T04:03:49;144322.81;;;4.48;100.00
28354;BME280;15603;50.878;8.036;2023-04-25T04:06:17;144310.75;;;4.43;100.00
28354;BME280;15603;50.878;8.036;2023-04-25T04:08:49;144238.16;;;4.12;100.00
28354;BME280;15603;50.878;8.036;2023-04-25T04:11:16;144333.72;;;4.52;100.00
28354;BME280;15603;50.878;8.036;2023-04-25T04:13:43;144313.13;;;4.44;100.00
28354;BME280;15603;50.878;8.036;2023-04-25T04:16:10;144363.94;;;4.65;100.00
28354;BME280;15603;50.878;8.036;2023-04-25T04:18:37;144339.75;;;4.55;100.00
28354;BME280;15603;50.878;8.036;2023-04-25T04:21:04;144365.19;;;4.66;100.00
28354;BME280;15603;50.878;8.036;2023-04-25T04:23:34;144309.50;;;4.42;100.00
28354;BME280;15603;50.878;8.036;2023-04-25T04:26:05;144349.44;;;4.59;100.00
28354;BME280;15603;50.878;8.036;2023-04-25T04:28:51;144348.25;;;4.59;100.00
28354;BME280;15603;50.878;8.036;2023-04-25T04:31:35;144334.91;;;4.53;100.00
28354;BME280;15603;50.878;8.036;2023-04-25T04:34:03;144273.19;;;4.27;100.00
28354;BME280;15603;50.878;8.036;2023-04-25T04:36:30;144340.97;;;4.56;100.00
28354;BME280;15603;50.878;8.036;2023-04-25T04:38:57;144345.78;;;4.58;100.00
28354;BME280;15603;50.878;8.036;2023-04-25T04:41:51;144330.09;;;4.51;100.00
28354;BME280;15603;50.878;8.036;2023-04-25T04:44:49;144355.47;;;4.62;100.00
28354;BME280;15603;50.878;8.036;2023-04-25T04:47:25;144326.44;;;4.49;100.00
28354;BME280;15603;50.878;8.036;2023-04-25T04:50:25;144287.75;;;4.33;100.00
28354;BME280;15603;50.878;8.036;2023-04-25T04:53:28;144293.78;;;4.36;100.00
28354;BME280;15603;50.878;8.036;2023-04-25T04:56:13;144350.63;;;4.60;100.00
28354;BME280;15603;50.878;8.036;2023-04-25T04:58:52;144376.06;;;4.70;100.00
28354;BME280;15603;50.878;8.036;2023-04-25T05:01:33;144378.50;;;4.71;100.00
28354;BME280;15603;50.878;8.036;2023-04-25T05:04:20;144454.72;;;5.04;100.00
28354;BME280;15603;50.878;8.036;2023-04-25T05:07:10;144487.44;;;5.18;100.00
28354;BME280;15603;50.878;8.036;2023-04-25T05:09:46;144509.22;;;5.27;100.00
28354;BME280;15603;50.878;8.036;2023-04-25T05:12:32;144520.13;;;5.31;100.00
28354;BME280;15603;50.878;8.036;2023-04-25T05:15:30;144500.72;;;5.23;100.00
28354;BME280;15603;50.878;8.036;2023-04-25T05:18:17;144510.44;;;5.27;100.00
28354;BME280;15603;50.878;8.036;2023-04-25T05:21:08;144554.00;;;5.46;100.00
28354;BME280;15603;50.878;8.036;2023-04-25T05:23:47;144570.97;;;5.53;100.00
28354;BME280;15603;50.878;8.036;2023-04-25T05:26:33;144587.94;;;5.60;100.00
28354;BME280;15603;50.878;8.036;2023-04-25T05:29:21;144610.97;;;5.70;100.00
28354;BME280;15603;50.878;8.036;2023-04-25T05:32:07;144643.66;;;5.84;100.00
28354;BME280;15603;50.878;8.036;2023-04-25T05:34:35;144609.72;;;5.69;100.00
28354;BME280;15603;50.878;8.036;2023-04-25T05:37:05;144670.34;;;5.95;100.00
28354;BME280;15603;50.878;8.036;2023-04-25T05:39:37;144664.22;;;5.93;100.00
28354;BME280;15603;50.878;8.036;2023-04-25T05:42:25;144711.53;;;6.13;100.00
28354;BME280;15603;50.878;8.036;2023-04-25T05:45:01;144692.16;;;6.04;100.00
28354;BME280;15603;50.878;8.036;2023-04-25T05:47:51;144783.03;;;6.43;100.00
28354;BME280;15603;50.878;8.036;2023-04-25T05:50:48;144745.44;;;6.27;100.00
28354;BME280;15603;50.878;8.036;2023-04-25T05:53:36;144858.16;;;6.75;100.00
28354;BME280;15603;50.878;8.036;2023-04-25T05:56:03;144852.13;;;6.72;100.00
28354;BME280;15603;50.878;8.036;2023-04-25T05:58:31;144877.53;;;6.83;100.00
28354;BME280;15603;50.878;8.036;2023-04-25T06:00:59;144886.03;;;6.86;100.00
28354;BME280;15603;50.878;8.036;2023-04-25T06:03:26;144889.69;;;6.88;100.00
28354;BME280;15603;50.878;8.036;2023-04-25T06:05:56;144854.50;;;6.73;100.00
28354;BME280;15603;50.878;8.036;2023-04-25T06:08:25;144887.22;;;6.87;100.00
28354;BME280;15603;50.878;8.036;2023-04-25T06:10:52;144844.81;;;6.69;100.00
28354;BME280;15603;50.878;8.036;2023-04-25T06:13:19;144846.03;;;6.69;100.00
28354;BME280;15603;50.878;8.036;2023-04-25T06:15:46;144827.84;;;6.62;100.00
28354;BME280;15603;50.878;8.036;2023-04-25T06:18:13;144758.78;;;6.33;100.00
28354;BME280;15603;50.878;8.036;2023-04-25T06:20:41;144745.44;;;6.27;100.00
28354;BME280;15603;50.878;8.036;2023-04-25T06:23:08;144724.88;;;6.18;100.00
28354;BME280;15603;50.878;8.036;2023-04-25T06:25:53;144750.28;;;6.29;100.00
28354;BME280;15603;50.878;8.036;2023-04-25T06:28:21;144704.25;;;6.09;100.00
28354;BME280;15603;50.878;8.036;2023-04-25T06:30:49;144715.19;;;6.14;100.00
28354;BME280;15603;50.878;8.036;2023-04-25T06:33:18;144674.00;;;5.97;100.00
28354;BME280;15603;50.878;8.036;2023-04-25T06:35:45;144761.22;;;6.34;100.00
28354;BME280;15603;50.878;8.036;2023-04-25T06:38:16;144798.78;;;6.49;100.00
28354;BME280;15603;50.878;8.036;2023-04-25T06:40:47;144743.03;;;6.26;100.00
28354;BME280;15603;50.878;8.036;2023-04-25T06:43:14;144796.31;;;6.48;100.00
28354;BME280;15603;50.878;8.036;2023-04-25T06:45:59;144796.31;;;6.48;100.00
28354;BME280;15603;50.878;8.036;2023-04-25T06:48:29;144791.47;;;6.46;100.00
28354;BME280;15603;50.878;8.036;2023-04-25T06:50:57;144830.28;;;6.63;100.00
28354;BME280;15603;50.878;8.036;2023-04-25T06:53:25;144826.66;;;6.61;100.00
28354;BME280;15603;50.878;8.036;2023-04-25T06:55:58;144806.06;;;6.53;100.00
28354;BME280;15603;50.878;8.036;2023-04-25T06:58:29;144871.50;;;6.80;100.00
28354;BME280;15603;50.878;8.036;2023-04-25T07:01:08;144854.50;;;6.73;100.00
28354;BME280;15603;50.878;8.036;2023-04-25T07:03:36;144833.94;;;6.64;100.00
28354;BME280;15603;50.878;8.036;2023-04-25T07:06:09;144784.25;;;6.43;100.00
28354;BME280;15603;50.878;8.036;2023-04-25T07:08:36;144803.63;;;6.52;100.00
28354;BME280;15603;50.878;8.036;2023-04-25T07:11:03;144767.25;;;6.36;100.00
28354;BME280;15603;50.878;8.036;2023-04-25T07:13:30;144683.69;;;6.01;100.00
28354;BME280;15603;50.878;8.036;2023-04-25T07:15:57;144652.13;;;5.87;100.00
28354;BME280;15603;50.878;8.036;2023-04-25T07:18:26;144635.16;;;5.80;100.00
28354;BME280;15603;50.878;8.036;2023-04-25T07:20:54;144617.00;;;5.73;100.00
28354;BME280;15603;50.878;8.036;2023-04-25T07:23:21;144585.50;;;5.59;100.00
28354;BME280;15603;50.878;8.036;2023-04-25T07:25:49;144647.28;;;5.85;100.00
28354;BME280;15603;50.878;8.036;2023-04-25T07:28:20;144716.38;;;6.15;100.00
28354;BME280;15603;50.878;8.036;2023-04-25T07:30:47;144716.38;;;6.15;100.00
28354;BME280;15603;50.878;8.036;2023-04-25T07:33:14;144769.72;;;6.37;100.00
28354;BME280;15603;50.878;8.036;2023-04-25T07:35:41;144791.47;;;6.46;100.00
28354;BME280;15603;50.878;8.036;2023-04-25T07:38:09;144825.44;;;6.61;100.00
28354;BME280;15603;50.878;8.036;2023-04-25T07:40:37;144860.59;;;6.76;100.00
28354;BME280;15603;50.878;8.036;2023-04-25T07:43:07;144841.19;;;6.67;100.00
28354;BME280;15603;50.878;8.036;2023-04-25T07:45:44;144958.78;;;7.17;100.00
28354;BME280;15603;50.878;8.036;2023-04-25T07:48:13;144997.59;;;7.34;99.79
28354;BME280;15603;50.878;8.036;2023-04-25T07:50:43;145050.94;;;7.56;100.00
28354;BME280;15603;50.878;8.036;2023-04-25T07:53:10;145089.75;;;7.73;100.00
28354;BME280;15603;50.878;8.036;2023-04-25T07:55:45;145046.06;;;7.54;96.03
28354;BME280;15603;50.878;8.036;2023-04-25T07:58:17;145041.22;;;7.52;96.87
28354;BME280;15603;50.878;8.036;2023-04-25T08:00:50;145024.28;;;7.45;95.68
28354;BME280;15603;50.878;8.036;2023-04-25T08:03:40;144985.47;;;7.28;98.13
28354;BME280;15603;50.878;8.036;2023-04-25T08:06:14;145004.84;;;7.37;96.23
28354;BME280;15603;50.878;8.036;2023-04-25T08:09:01;144959.97;;;7.18;95.93
28354;BME280;15603;50.878;8.036;2023-04-25T08:11:35;145010.94;;;7.39;94.44
28354;BME280;15603;50.878;8.036;2023-04-25T08:14:02;145029.13;;;7.47;90.78
28354;BME280;15603;50.878;8.036;2023-04-25T08:16:29;145088.56;;;7.72;90.83
28354;BME280;15603;50.878;8.036;2023-04-25T08:18:57;145041.22;;;7.52;90.25
28354;BME280;15603;50.878;8.036;2023-04-25T08:21:24;145043.69;;;7.53;89.22
28354;BME280;15603;50.878;8.036;2023-04-25T08:23:53;145165.00;;;8.04;88.65
28354;BME280;15603;50.878;8.036;2023-04-25T08:26:25;145194.09;;;8.17;85.75
28354;BME280;15603;50.878;8.036;2023-04-25T08:28:52;145145.56;;;7.96;84.94
28354;BME280;15603;50.878;8.036;2023-04-25T08:31:19;145165.00;;;8.04;84.83
28354;BME280;15603;50.878;8.036;2023-04-25T08:33:56;145143.16;;;7.95;85.09
28354;BME280;15603;50.878;8.036;2023-04-25T08:36:52;145294.88;;;8.59;81.87
28354;BME280;15603;50.878;8.036;2023-04-25T08:39:29;145410.16;;;9.08;76.67
28354;BME280;15603;50.878;8.036;2023-04-25T08:42:17;145327.63;;;8.73;75.90
28354;BME280;15603;50.878;8.036;2023-04-25T08:44:48;145410.16;;;9.08;73.85
28354;BME280;15603;50.878;8.036;2023-04-25T08:47:18;145282.72;;;8.54;70.93
28354;BME280;15603;50.878;8.036;2023-04-25T08:49:53;145252.41;;;8.41;73.16
28354;BME280;15603;50.878;8.036;2023-04-25T08:52:22;145296.06;;;8.60;76.06
28354;BME280;15603;50.878;8.036;2023-04-25T08:54:52;145259.66;;;8.44;76.68
28354;BME280;15603;50.878;8.036;2023-04-25T08:57:21;145246.25;;;8.39;82.23
28354;BME280;15603;50.878;8.036;2023-04-25T08:59:49;145269.34;;;8.49;74.47
28354;BME280;15603;50.878;8.036;2023-04-25T09:02:17;145281.50;;;8.54;74.43
28354;BME280;15603;50.878;8.036;2023-04-25T09:04:49;145294.88;;;8.59;73.33
28354;BME280;15603;50.878;8.036;2023-04-25T09:07:16;145239.00;;;8.36;74.41
28354;BME280;15603;50.878;8.036;2023-04-25T09:09:47;145434.47;;;9.18;69.40
28354;BME280;15603;50.878;8.036;2023-04-25T09:12:20;145466.06;;;9.32;69.48
28354;BME280;15603;50.878;8.036;2023-04-25T09:15:07;145466.06;;;9.32;66.58
28354;BME280;15603;50.878;8.036;2023-04-25T09:17:57;145456.34;;;9.28;65.63
28354;BME280;15603;50.878;8.036;2023-04-25T09:20:30;145472.13;;;9.34;66.29
28354;BME280;15603;50.878;8.036;2023-04-25T09:23:05;145375.00;;;8.93;64.63
28354;BME280;15603;50.878;8.036;2023-04-25T09:25:37;145408.97;;;9.08;66.63
28354;BME280;15603;50.878;8.036;2023-04-25T09:28:09;145474.56;;;9.35;63.60
28354;BME280;15603;50.878;8.036;2023-04-25T09:30:36;145462.41;;;9.30;61.40
28354;BME280;15603;50.878;8.036;2023-04-25T09:33:17;145395.63;;;9.02;60.70
28354;BME280;15603;50.878;8.036;2023-04-25T09:35:48;145382.25;;;8.96;61.56
28354;BME280;15603;50.878;8.036;2023-04-25T09:38:44;145240.19;;;8.36;63.10
28354;BME280;15603;50.878;8.036;2023-04-25T09:41:27;145262.09;;;8.45;65.07
28354;BME280;15603;50.878;8.036;2023-04-25T09:43:58;145282.72;;;8.54;65.87
28354;BME280;15603;50.878;8.036;2023-04-25T09:46:34;145265.75;;;8.47;68.46
28354;BME280;15603;50.878;8.036;2023-04-25T09:49:14;145249.91;;;8.40;66.08
28354;BME280;15603;50.878;8.036;2023-04-25T09:51:58;145276.66;;;8.52;66.63
28354;BME280;15603;50.878;8.036;2023-04-25T09:54:30;145327.63;;;8.73;68.78
28354;BME280;15603;50.878;8.036;2023-04-25T09:57:12;145291.22;;;8.58;65.46
28354;BME280;15603;50.878;8.036;2023-04-25T09:59:44;145323.97;;;8.72;65.91
28354;BME280;15603;50.878;8.036;2023-04-25T10:02:12;145344.63;;;8.80;67.37
28354;BME280;15603;50.878;8.036;2023-04-25T10:04:41;145343.44;;;8.80;67.33
28354;BME280;15603;50.878;8.036;2023-04-25T10:07:19;145292.47;;;8.58;65.61
28354;BME280;15603;50.878;8.036;2023-04-25T10:09:48;145349.47;;;8.82;67.44
28354;BME280;15603;50.878;8.036;2023-04-25T10:12:19;145271.81;;;8.50;66.02
28354;BME280;15603;50.878;8.036;2023-04-25T10:14:47;145449.03;;;9.24;69.15
28354;BME280;15603;50.878;8.036;2023-04-25T10:17:14;145531.63;;;9.59;65.58
28354;BME280;15603;50.878;8.036;2023-04-25T10:19:42;145575.38;;;9.78;63.09
28354;BME280;15603;50.878;8.036;2023-04-25T10:22:17;145633.66;;;10.02;66.12
28354;BME280;15603;50.878;8.036;2023-04-25T10:24:45;145693.22;;;10.28;62.43
28354;BME280;15603;50.878;8.036;2023-04-25T10:27:13;145762.53;;;10.57;62.79
28354;BME280;15603;50.878;8.036;2023-04-25T10:29:41;145749.16;;;10.51;64.99
28354;BME280;15603;50.878;8.036;2023-04-25T10:32:10;145738.19;;;10.47;62.06
28354;BME280;15603;50.878;8.036;2023-04-25T10:34:42;145689.56;;;10.26;62.13
28354;BME280;15603;50.878;8.036;2023-04-25T10:37:10;145626.38;;;9.99;61.87
28354;BME280;15603;50.878;8.036;2023-04-25T10:39:39;145582.63;;;9.81;60.35
28354;BME280;15603;50.878;8.036;2023-04-25T10:42:07;145604.50;;;9.90;61.04
28354;BME280;15603;50.878;8.036;2023-04-25T10:44:37;145513.41;;;9.52;61.99
28354;BME280;15603;50.878;8.036;2023-04-25T10:47:07;145445.41;;;9.23;59.78
28354;BME280;15603;50.878;8.036;2023-04-25T10:49:41;145709.06;;;10.34;64.91
28354;BME280;15603;50.878;8.036;2023-04-25T10:52:28;145655.53;;;10.12;57.92
28354;BME280;15603;50.878;8.036;2023-04-25T10:54:57;145706.59;;;10.33;58.82
28354;BME280;15603;50.878;8.036;2023-04-25T10:57:38;145660.38;;;10.14;57.88
28354;BME280;15603;50.878;8.036;2023-04-25T11:00:07;145508.56;;;9.50;60.09
28354;BME280;15603;50.878;8.036;2023-04-25T11:02:42;145440.53;;;9.21;62.94
28354;BME280;15603;50.878;8.036;2023-04-25T11:05:10;145453.91;;;9.27;63.22
28354;BME280;15603;50.878;8.036;2023-04-25T11:07:49;145413.81;;;9.10;62.13
28354;BME280;15603;50.878;8.036;2023-04-25T11:10:33;145339.78;;;8.78;62.49
28354;BME280;15603;50.878;8.036;2023-04-25T11:13:04;145351.94;;;8.83;62.56
28354;BME280;15603;50.878;8.036;2023-04-25T11:15:31;145433.25;;;9.18;63.34
28354;BME280;15603;50.878;8.036;2023-04-25T11:17:58;145447.84;;;9.24;61.64
28354;BME280;15603;50.878;8.036;2023-04-25T11:20:26;145512.19;;;9.51;63.38
28354;BME280;15603;50.878;8.036;2023-04-25T11:22:57;145509.75;;;9.50;60.53
28354;BME280;15603;50.878;8.036;2023-04-25T11:25:25;145640.97;;;10.06;62.50
28354;BME280;15603;50.878;8.036;2023-04-25T11:27:57;145718.78;;;10.38;58.53
28354;BME280;15603;50.878;8.036;2023-04-25T11:30:25;145677.41;;;10.21;58.18
28354;BME280;15603;50.878;8.036;2023-04-25T11:32:53;145670.09;;;10.18;57.99
28354;BME280;15603;50.878;8.036;2023-04-25T11:35:20;145633.66;;;10.02;59.02
28354;BME280;15603;50.878;8.036;2023-04-25T11:37:49;145549.84;;;9.67;59.65
28354;BME280;15603;50.878;8.036;2023-04-25T11:40:17;145419.94;;;9.12;60.74
28354;BME280;15603;50.878;8.036;2023-04-25T11:42:47;145433.25;;;9.18;63.23
28354;BME280;15603;50.878;8.036;2023-04-25T11:45:15;145444.19;;;9.22;62.58
28354;BME280;15603;50.878;8.036;2023-04-25T11:47:42;145313.06;;;8.67;63.29
28354;BME280;15603;50.878;8.036;2023-04-25T11:50:10;145281.50;;;8.54;63.02
28354;BME280;15603;50.878;8.036;2023-04-25T11:52:42;145260.91;;;8.45;64.29
28354;BME280;15603;50.878;8.036;2023-04-25T11:55:17;145320.38;;;8.70;64.78
28354;BME280;15603;50.878;8.036;2023-04-25T11:57:46;145393.22;;;9.01;60.63
28354;BME280;15603;50.878;8.036;2023-04-25T12:00:15;145458.75;;;9.29;59.31
28354;BME280;15603;50.878;8.036;2023-04-25T12:02:47;145560.75;;;9.72;59.54
28354;BME280;15603;50.878;8.036;2023-04-25T12:05:15;145565.66;;;9.74;55.29
28354;BME280;15603;50.878;8.036;2023-04-25T12:08:09;145693.22;;;10.28;55.62
28354;BME280;15603;50.878;8.036;2023-04-25T12:10:41;145611.81;;;9.93;52.32
28354;BME280;15603;50.878;8.036;2023-04-25T12:15:49;145538.94;;;9.62;51.45
28354;BME280;15603;50.878;8.036;2023-04-25T12:18:20;145555.91;;;9.70;52.38
28354;BME280;15603;50.878;8.036;2023-04-25T12:20:48;145572.91;;;9.77;51.22
28354;BME280;15603;50.878;8.036;2023-04-25T12:23:15;145613.03;;;9.94;51.00
28354;BME280;15603;50.878;8.036;2023-04-25T12:25:44;145628.78;;;10.00;49.36
28354;BME280;15603;50.878;8.036;2023-04-25T12:28:20;145783.19;;;10.66;49.77
28354;BME280;15603;50.878;8.036;2023-04-25T12:31:04;145850.06;;;10.94;48.56
28354;BME280;15603;50.878;8.036;2023-04-25T12:33:33;145891.38;;;11.11;50.38
28354;BME280;15603;50.878;8.036;2023-04-25T12:36:02;145893.78;;;11.12;49.19
28354;BME280;15603;50.878;8.036;2023-04-25T12:38:40;145762.53;;;10.57;48.33
28354;BME280;15603;50.878;8.036;2023-04-25T12:41:08;145617.88;;;9.96;49.52
28354;BME280;15603;50.878;8.036;2023-04-25T12:43:36;145626.38;;;9.99;49.24
28354;BME280;15603;50.878;8.036;2023-04-25T12:46:03;145693.22;;;10.28;46.46
28354;BME280;15603;50.878;8.036;2023-04-25T12:48:30;145643.41;;;10.07;45.29
28354;BME280;15603;50.878;8.036;2023-04-25T12:50:58;145762.53;;;10.57;45.92
28354;BME280;15603;50.878;8.036;2023-04-25T12:53:25;145784.38;;;10.66;45.77
28354;BME280;15603;50.878;8.036;2023-04-25T12:55:52;145752.81;;;10.53;44.19
28354;BME280;15603;50.878;8.036;2023-04-25T12:58:24;145797.75;;;10.72;45.58
28354;BME280;15603;50.878;8.036;2023-04-25T13:00:52;145745.50;;;10.50;44.62
28354;BME280;15603;50.878;8.036;2023-04-25T13:03:19;145711.50;;;10.35;44.40
28354;BME280;15603;50.878;8.036;2023-04-25T13:05:46;145755.22;;;10.54;44.63
28354;BME280;15603;50.878;8.036;2023-04-25T13:08:13;145750.38;;;10.52;45.84
28354;BME280;15603;50.878;8.036;2023-04-25T13:10:41;145745.50;;;10.50;46.02
28354;BME280;15603;50.878;8.036;2023-04-25T13:13:08;145811.13;;;10.77;45.03
28354;BME280;15603;50.878;8.036;2023-04-25T13:15:35;145941.25;;;11.32;46.23
28354;BME280;15603;50.878;8.036;2023-04-25T13:18:04;146081.19;;;11.91;43.35